CYND

Ottawa / Gatineau Airport

Ottawa, , Canada
METAR CYND 192000Z 32012KT 290V010 15SM FEW250 23/08 A2992 RMK CI1 CI TR SLP132 DENSITY ALT 1200FT
Observed Flight Rules
Jun-19 @ 20:00 UTC (16 minutes ago) Visual Flight Rules
Wind Visibility Clouds
320° at 12 knots 15 miles
  • Few at 25,000' AGL
Temperatures Readings
Current 23°C / 73°F
Dewpoint 8°C / 46°F
Humidity 38%
Altimeter 29.92" Hg
Pressure 1013.2 hPa
Elevation 64
METAR CYND 192000Z 32012KT 290V010 15SM FEW250 23/08 A2992 RMK CI1 CI TR SLP132 DENSITY ALT 1200FT
Observed Flight Rules
Jun-19 @ 20:00 UTC
(16 minutes ago)
VFR
Wind Visibility
320° at 12 knots 15 miles
Clouds
  • Few at 25,000' AGL
Temperature Dewpoint
23°C / 73°F 8°C / 46°F
Humidity Altimeter Pressure
38% 29.92" Hg 1013.2 hPa